createdAt,value
2019-01-14T07:13:20.805Z,99.10
2019-01-14T07:22:32.668Z,98.80
2019-01-14T07:25:14.219Z,98.80
2019-01-14T07:28:08.661Z,98.80
2019-01-14T07:31:10.676Z,98.80
2019-01-14T07:36:36.487Z,98.80
2019-01-14T07:41:46.683Z,98.80
2019-01-14T07:55:04.321Z,99.40
2019-01-14T08:09:11.143Z,98.00
2019-01-14T08:10:37.361Z,97.30
2019-01-14T08:20:03.333Z,95.10
2019-01-14T08:35:33.995Z,93.70
2019-01-14T08:38:07.781Z,93.90
2019-01-14T08:40:36.656Z,94.30
2019-01-14T08:43:08.840Z,94.80
2019-01-14T08:45:37.323Z,94.90
2019-01-14T08:48:11.025Z,94.80
2019-01-14T08:50:40.946Z,94.70
2019-01-14T08:53:54.556Z,94.60
2019-01-14T08:56:54.282Z,94.90
2019-01-14T08:58:37.421Z,93.90
2019-01-14T09:01:08.872Z,93.50
2019-01-14T09:03:48.297Z,92.90
2019-01-14T09:06:16.901Z,92.20
2019-01-14T09:08:45.628Z,92.00
2019-01-14T09:11:14.301Z,91.90
2019-01-14T09:13:43.059Z,92.10
2019-01-14T09:16:11.602Z,92.40
2019-01-14T09:18:40.319Z,92.60
2019-01-14T09:21:13.053Z,92.70
2019-01-14T09:23:43.234Z,92.30
2019-01-14T09:26:14.876Z,92.00
2019-01-14T09:28:43.552Z,92.30
2019-01-14T09:31:15.232Z,92.30
2019-01-14T09:33:46.005Z,92.10
2019-01-14T09:36:17.557Z,92.10
2019-01-14T09:38:48.742Z,92.10
2019-01-14T09:41:17.500Z,90.80
2019-01-14T09:43:56.003Z,90.60
2019-01-14T09:46:25.364Z,90.30
2019-01-14T09:48:54.359Z,90.20
2019-01-14T09:51:27.151Z,90.00
2019-01-14T09:53:55.830Z,89.50
2019-01-14T09:56:24.528Z,88.70
2019-01-14T09:58:52.991Z,88.60
2019-01-14T10:01:24.126Z,88.20
2019-01-14T10:03:52.795Z,87.50
2019-01-14T10:06:24.392Z,86.40
2019-01-14T10:08:53.118Z,86.20
2019-01-14T10:11:28.481Z,86.10
2019-01-14T10:14:00.029Z,83.80
2019-01-14T10:16:30.826Z,82.70
2019-01-14T10:18:59.196Z,83.00
2019-01-14T10:21:27.987Z,83.50
2019-01-14T10:23:58.417Z,84.80
2019-01-14T10:26:29.920Z,85.00
2019-01-14T10:28:58.743Z,86.10
2019-01-14T10:31:36.075Z,86.70
2019-01-14T10:34:02.913Z,85.50
2019-01-14T10:36:33.490Z,84.60
2019-01-14T10:39:05.433Z,84.30
2019-01-14T10:41:48.661Z,83.20
2019-01-14T10:44:18.823Z,82.50
2019-01-14T10:46:50.450Z,82.00
2019-01-14T10:49:24.655Z,83.10
2019-01-14T10:52:10.420Z,82.00
2019-01-14T10:54:46.850Z,82.20
2019-01-14T10:57:21.691Z,81.90
2019-01-14T10:59:51.130Z,82.20
2019-01-14T11:02:24.910Z,81.30
2019-01-14T11:05:03.427Z,79.40
2019-01-14T11:07:38.905Z,77.60
2019-01-14T11:10:06.124Z,74.00
2019-01-14T11:12:39.566Z,73.30
2019-01-14T11:15:14.060Z,73.70
2019-01-14T11:17:46.115Z,74.40
2019-01-14T11:20:21.721Z,74.20
2019-01-14T11:22:57.895Z,75.40
2019-01-14T11:25:29.987Z,74.90
2019-01-14T11:28:03.463Z,76.10
2019-01-14T11:30:33.881Z,71.20
2019-01-14T11:33:02.598Z,70.70
2019-01-14T11:35:31.492Z,69.70
2019-01-14T11:38:03.032Z,69.30
2019-01-14T11:40:54.094Z,69.40
2019-01-14T11:43:20.254Z,69.10
2019-01-14T11:45:50.600Z,68.50
2019-01-14T11:48:20.565Z,68.10
2019-01-14T11:50:52.332Z,67.60
2019-01-14T11:53:21.045Z,67.00
2019-01-14T11:55:53.020Z,67.50
2019-01-14T11:58:23.953Z,67.80
2019-01-14T12:00:54.576Z,66.90
2019-01-14T12:03:24.905Z,66.00
2019-01-14T12:05:55.488Z,66.80
2019-01-14T12:08:26.135Z,66.40
2019-01-14T12:10:57.542Z,65.20
2019-01-14T12:13:37.164Z,66.30
2019-01-14T12:16:14.492Z,66.40
2019-01-14T12:18:44.970Z,64.30
2019-01-14T12:21:23.085Z,63.50
2019-01-14T12:24:00.568Z,62.80
2019-01-14T12:26:33.002Z,61.50
2019-01-14T12:29:09.935Z,60.40
2019-01-14T12:31:35.802Z,59.90
2019-01-14T12:34:04.493Z,60.60
2019-01-14T12:36:33.154Z,59.70
2019-01-14T12:39:03.956Z,61.20
2019-01-14T12:41:32.700Z,61.70
2019-01-14T12:44:06.374Z,61.60
2019-01-14T12:46:36.528Z,62.30
2019-01-14T12:49:08.746Z,62.50
2019-01-14T12:51:42.175Z,61.80
2019-01-14T12:54:10.445Z,61.50
2019-01-14T12:56:38.958Z,61.20
2019-01-14T12:59:07.650Z,60.40
2019-01-14T13:01:36.315Z,61.30
2019-01-14T13:04:04.833Z,62.30
2019-01-14T13:06:33.466Z,63.00
2019-01-14T13:09:02.097Z,63.30
2019-01-14T13:11:30.629Z,62.50
2019-01-14T13:14:00.341Z,62.90
2019-01-14T13:16:54.225Z,63.40
2019-01-14T13:19:26.894Z,64.30
2019-01-14T13:21:55.357Z,62.60
2019-01-14T13:24:26.143Z,60.20
2019-01-14T13:26:54.481Z,60.80
2019-01-14T13:29:23.073Z,61.30
2019-01-14T13:31:52.782Z,60.00
2019-01-14T13:34:26.693Z,57.60
2019-01-14T13:36:53.799Z,57.10
2019-01-14T13:39:37.537Z,55.30
2019-01-14T13:42:15.175Z,54.80
2019-01-14T13:44:48.176Z,56.20
2019-01-14T13:47:22.906Z,58.50
2019-01-14T13:49:51.898Z,61.80
2019-01-14T13:52:23.521Z,63.90
2019-01-14T13:55:04.982Z,66.10
2019-01-14T13:57:33.698Z,67.10
2019-01-14T14:00:04.037Z,68.00
2019-01-14T14:05:40.822Z,69.20
2019-01-14T14:06:22.236Z,68.60
2019-01-14T14:08:16.859Z,69.80
2019-01-14T14:10:47.248Z,69.70
2019-01-14T14:13:20.684Z,69.70
2019-01-14T14:15:48.938Z,70.20
2019-01-14T14:18:20.703Z,70.60
2019-01-14T14:20:51.135Z,70.70
2019-01-14T14:23:19.987Z,72.50
2019-01-14T14:25:49.755Z,75.50
2019-01-14T14:28:18.434Z,79.00
2019-01-14T14:30:50.322Z,79.50
2019-01-14T14:33:36.225Z,81.50
2019-01-14T14:36:04.975Z,81.40
2019-01-14T14:38:36.152Z,82.60
2019-01-14T14:41:10.418Z,83.70
2019-01-14T14:43:39.971Z,85.80
2019-01-14T14:46:11.800Z,89.90
2019-01-14T14:48:40.337Z,91.30
2019-01-14T14:51:10.305Z,93.40
2019-01-14T14:53:38.996Z,94.40
2019-01-14T14:56:07.612Z,94.80
2019-01-14T14:58:37.934Z,95.10
2019-01-14T15:01:09.285Z,95.00
2019-01-14T15:03:37.986Z,94.90
2019-01-14T15:06:08.082Z,94.90
2019-01-14T15:08:36.667Z,93.50
2019-01-14T15:11:05.151Z,92.70
2019-01-14T15:13:33.686Z,92.50
2019-01-14T15:16:02.656Z,92.40
2019-01-14T15:18:31.322Z,92.70
2019-01-14T15:20:59.768Z,93.00
2019-01-14T15:23:36.403Z,93.30
2019-01-14T15:26:01.986Z,93.70
2019-01-14T15:28:33.312Z,93.90
2019-01-14T15:31:01.917Z,94.10
2019-01-14T15:33:30.715Z,93.90
2019-01-14T15:35:59.541Z,93.70
2019-01-14T15:38:29.894Z,93.10
2019-01-14T15:41:05.889Z,93.00
2019-01-14T15:43:38.118Z,93.20
2019-01-14T15:46:17.695Z,93.50
2019-01-14T15:48:49.674Z,93.40
2019-01-14T15:51:18.435Z,93.50
2019-01-14T15:53:48.870Z,93.90
2019-01-14T15:56:17.354Z,93.70
2019-01-14T15:58:45.859Z,93.60
2019-01-14T16:01:14.430Z,93.70
2019-01-14T16:03:43.007Z,93.50
2019-01-14T16:06:11.791Z,93.20
2019-01-14T16:08:40.432Z,93.00
2019-01-14T16:11:09.092Z,92.80
2019-01-14T16:13:37.848Z,92.80
2019-01-14T16:16:06.327Z,92.80
2019-01-14T16:18:37.324Z,92.60
2019-01-14T16:21:05.938Z,92.60
2019-01-14T16:23:34.400Z,92.70
2019-01-14T16:26:02.940Z,92.70
2019-01-14T16:28:31.707Z,92.90
2019-01-14T16:31:00.450Z,93.20
2019-01-14T16:33:29.023Z,93.40
2019-01-14T16:35:59.266Z,93.40
2019-01-14T16:38:27.710Z,93.50
2019-01-14T16:40:56.168Z,93.50
2019-01-14T16:43:24.646Z,94.00
2019-01-14T16:46:00.716Z,93.90
2019-01-14T16:48:34.128Z,93.20
2019-01-14T16:51:02.646Z,93.20
2019-01-14T16:53:32.304Z,93.40
2019-01-14T16:56:02.297Z,93.60
2019-01-14T16:58:31.373Z,93.90
2019-01-14T17:01:00.055Z,94.00
2019-01-14T17:03:28.634Z,93.80
2019-01-14T17:06:00.586Z,94.10
2019-01-14T17:08:29.231Z,94.30
2019-01-14T17:10:57.756Z,94.40
2019-01-14T17:13:28.386Z,94.40
2019-01-14T17:16:02.421Z,94.60
2019-01-14T17:18:33.465Z,94.60
2019-01-14T17:21:03.902Z,94.80
2019-01-14T17:23:32.279Z,94.90
2019-01-14T17:26:02.463Z,94.70
2019-01-14T17:28:30.981Z,94.70
2019-01-14T17:31:05.440Z,94.80
2019-01-14T17:33:34.097Z,94.80
2019-01-14T17:36:10.224Z,94.70
2019-01-14T17:39:10.883Z,94.80
2019-01-14T17:41:21.624Z,94.80
2019-01-14T17:43:50.410Z,94.80
2019-01-14T17:46:19.238Z,95.00
2019-01-14T17:48:52.264Z,94.90
2019-01-14T17:51:25.497Z,94.80
2019-01-14T17:53:54.203Z,94.80
2019-01-14T17:56:29.373Z,94.80
2019-01-14T17:59:02.732Z,94.60
2019-01-14T18:04:35.242Z,94.80
2019-01-14T18:07:07.747Z,93.80
2019-01-14T18:09:37.348Z,93.50
2019-01-14T18:12:06.087Z,93.40
2019-01-14T18:14:37.730Z,93.10
2019-01-14T18:17:06.534Z,92.90
2019-01-14T18:19:41.314Z,92.80
2019-01-14T18:22:11.563Z,92.80
2019-01-14T18:24:40.403Z,92.50
2019-01-14T18:27:10.720Z,92.50
2019-01-14T18:29:39.343Z,92.50
2019-01-14T18:32:08.124Z,92.20
2019-01-14T18:34:39.385Z,92.20
2019-01-14T18:37:07.979Z,92.30
2019-01-14T18:39:40.167Z,92.40
2019-01-14T18:42:08.938Z,92.40
2019-01-14T18:44:37.767Z,92.50
2019-01-14T18:47:20.618Z,92.50
2019-01-14T18:50:06.712Z,92.70
2019-01-14T18:55:28.161Z,92.80
2019-01-14T18:57:56.877Z,92.70
2019-01-14T19:00:26.836Z,92.70
2019-01-14T19:02:59.092Z,92.80
2019-01-14T19:05:29.900Z,92.80
2019-01-14T19:07:59.739Z,92.80
2019-01-14T19:10:28.369Z,92.80
2019-01-14T19:12:58.190Z,92.70
2019-01-14T19:15:26.838Z,92.80
2019-01-14T19:17:55.633Z,92.90
2019-01-14T19:20:27.801Z,92.90
2019-01-14T19:22:58.070Z,93.00
2019-01-14T19:25:26.707Z,93.10
2019-01-14T19:27:55.431Z,92.80
2019-01-14T19:30:25.564Z,92.90
2019-01-14T19:32:57.506Z,93.00
2019-01-14T19:35:37.941Z,93.00
2019-01-14T19:38:07.571Z,92.90
2019-01-14T19:40:36.435Z,93.30
2019-01-14T19:43:05.007Z,93.20
2019-01-14T19:46:43.706Z,93.10
2019-01-14T19:49:30.421Z,93.20
2019-01-14T19:51:19.227Z,93.40
2019-01-14T19:53:52.530Z,93.50
2019-01-14T19:56:23.822Z,93.50
2019-01-14T19:59:00.839Z,93.40
2019-01-14T20:01:40.027Z,93.40
2019-01-14T20:04:08.779Z,93.40
2019-01-14T20:06:40.619Z,93.50
2019-01-14T20:09:09.353Z,93.50
2019-01-14T20:11:38.028Z,93.50
2019-01-14T20:14:08.252Z,93.60
2019-01-14T20:16:37.031Z,93.60
2019-01-14T20:19:05.746Z,93.50
2019-01-14T20:21:44.589Z,93.50
2019-01-14T20:24:23.759Z,93.50
2019-01-14T20:26:52.706Z,93.60
2019-01-14T20:29:21.519Z,93.70
2019-01-14T20:31:50.217Z,93.60
2019-01-14T20:34:19.106Z,93.70
2019-01-14T20:36:47.819Z,93.50
2019-01-14T20:39:16.859Z,93.40
2019-01-14T20:44:40.038Z,93.20
2019-01-14T20:47:14.930Z,93.30
2019-01-14T20:49:45.368Z,93.30
2019-01-14T20:52:16.316Z,93.30
2019-01-14T20:54:49.103Z,93.10
2019-01-14T20:57:19.468Z,93.10
2019-01-14T20:59:49.447Z,93.00
2019-01-14T21:02:23.758Z,93.00
2019-01-14T21:04:56.502Z,92.80
2019-01-14T21:11:23.560Z,92.50
2019-01-14T21:14:04.723Z,92.80
2019-01-14T21:16:36.603Z,92.60
2019-01-14T21:19:23.665Z,92.70
2019-01-14T21:21:52.652Z,92.60
2019-01-14T21:24:23.361Z,92.50
2019-01-14T21:26:57.128Z,92.30
2019-01-14T21:29:26.119Z,92.30
2019-01-14T21:31:55.035Z,92.30
2019-01-14T21:34:23.797Z,92.30
2019-01-14T21:36:53.339Z,92.20
2019-01-14T21:39:22.897Z,92.10
2019-01-14T21:41:51.685Z,92.10
2019-01-14T21:44:25.677Z,92.20
2019-01-14T21:46:55.921Z,92.20
2019-01-14T21:49:31.832Z,92.30
2019-01-14T21:52:00.576Z,92.40
2019-01-14T21:54:32.548Z,92.50
2019-01-14T21:57:02.888Z,92.70
2019-01-14T21:59:36.058Z,92.70
2019-01-14T22:02:05.353Z,92.80
2019-01-14T22:04:39.675Z,92.80
2019-01-14T22:07:12.544Z,92.80
2019-01-14T22:09:42.354Z,93.00
2019-01-14T22:12:11.093Z,92.90
2019-01-14T22:14:46.444Z,92.90
2019-01-14T22:17:15.085Z,93.00
2019-01-14T22:19:46.449Z,93.00
2019-01-14T22:22:15.511Z,93.00
2019-01-14T22:24:45.768Z,93.20
2019-01-14T22:27:33.494Z,93.20
2019-01-14T22:30:11.027Z,93.30
2019-01-14T22:33:04.641Z,93.30
2019-01-14T22:35:33.155Z,93.40
2019-01-14T22:40:59.204Z,93.30
2019-01-14T22:43:28.652Z,93.20
2019-01-14T22:46:18.304Z,93.20
2019-01-14T22:48:49.076Z,93.10
2019-01-14T22:51:17.737Z,92.80
2019-01-14T22:53:48.411Z,92.50
2019-01-14T22:56:16.878Z,92.30
2019-01-14T22:58:45.368Z,92.20
2019-01-14T23:01:17.333Z,92.10
2019-01-14T23:03:46.019Z,91.90
2019-01-14T23:06:14.951Z,91.90
2019-01-14T23:08:45.022Z,91.70
2019-01-14T23:11:13.772Z,91.70
2019-01-14T23:14:00.799Z,91.40
2019-01-14T23:16:29.936Z,91.40
2019-01-14T23:18:58.729Z,91.30
2019-01-14T23:21:29.243Z,91.20
2019-01-14T23:23:59.086Z,91.10
2019-01-14T23:26:27.890Z,91.00
2019-01-14T23:29:14.682Z,91.00
2019-01-14T23:31:44.232Z,91.30
2019-01-14T23:34:12.858Z,91.00
2019-01-14T23:36:41.558Z,91.00
2019-01-14T23:39:15.989Z,91.00
2019-01-14T23:41:44.756Z,91.00
2019-01-14T23:44:16.313Z,91.10
2019-01-14T23:46:45.007Z,91.00
2019-01-14T23:52:42.302Z,91.00
2019-01-14T23:55:11.082Z,91.10
2019-01-14T23:57:39.632Z,91.20
